地図

経路データ

SID SEASON NUMBER BASIN SUBBASIN NAME ISO_TIME NATURE LAT LON WMO_WIND WMO_PRES WMO_AGENCY TRACK_TYPE DIST2LAND LANDFALL IFLAG USA_AGENCY USA_ATCF_ID USA_LAT USA_LON USA_RECORD USA_STATUS USA_WIND USA_PRES USA_SSHS USA_R34_NE USA_R34_SE USA_R34_SW USA_R34_NW USA_R50_NE USA_R50_SE USA_R50_SW USA_R50_NW USA_R64_NE USA_R64_SE USA_R64_SW USA_R64_NW USA_POCI USA_ROCI USA_RMW USA_EYE TOKYO_LAT TOKYO_LON TOKYO_GRADE TOKYO_WIND TOKYO_PRES TOKYO_R50_DIR TOKYO_R50_LONG TOKYO_R50_SHORT TOKYO_R30_DIR TOKYO_R30_LONG TOKYO_R30_SHORT TOKYO_LAND CMA_LAT CMA_LON CMA_CAT CMA_WIND CMA_PRES HKO_LAT HKO_LON HKO_CAT HKO_WIND HKO_PRES NEWDELHI_LAT NEWDELHI_LON NEWDELHI_GRADE NEWDELHI_WIND NEWDELHI_PRES NEWDELHI_CI NEWDELHI_DP NEWDELHI_POCI REUNION_LAT REUNION_LON REUNION_TYPE REUNION_WIND REUNION_PRES REUNION_TNUM REUNION_CI REUNION_RMW REUNION_R34_NE REUNION_R34_SE REUNION_R34_SW REUNION_R34_NW REUNION_R50_NE REUNION_R50_SE REUNION_R50_SW REUNION_R50_NW REUNION_R64_NE REUNION_R64_SE REUNION_R64_SW REUNION_R64_NW BOM_LAT BOM_LON BOM_TYPE BOM_WIND BOM_PRES BOM_TNUM BOM_CI BOM_RMW BOM_R34_NE BOM_R34_SE BOM_R34_SW BOM_R34_NW BOM_R50_NE BOM_R50_SE BOM_R50_SW BOM_R50_NW BOM_R64_NE BOM_R64_SE BOM_R64_SW BOM_R64_NW BOM_ROCI BOM_POCI BOM_EYE BOM_POS_METHOD BOM_PRES_METHOD NADI_LAT NADI_LON NADI_CAT NADI_WIND NADI_PRES WELLINGTON_LAT WELLINGTON_LON WELLINGTON_WIND WELLINGTON_PRES DS824_LAT DS824_LON DS824_STAGE DS824_WIND DS824_PRES TD9636_LAT TD9636_LON TD9636_STAGE TD9636_WIND TD9636_PRES TD9635_LAT TD9635_LON TD9635_WIND TD9635_PRES TD9635_ROCI NEUMANN_LAT NEUMANN_LON NEUMANN_CLASS NEUMANN_WIND NEUMANN_PRES MLC_LAT MLC_LON MLC_CLASS MLC_WIND MLC_PRES USA_GUST BOM_GUST BOM_GUST_PER REUNION_GUST REUNION_GUST_PER USA_SEAHGT USA_SEARAD_NE USA_SEARAD_SE USA_SEARAD_SW USA_SEARAD_NW STORM_SPEED STORM_DIR
1950196N21144 1950 39 WP MM FLOSSIE:GRACE 1950-07-15 06:00:00 TS 21.5000 144.000 main 1548 1528 ______________ -1 8 291
1950196N21144 1950 39 WP MM FLOSSIE:GRACE 1950-07-15 09:00:00 TS 21.6377 143.615 main 1524 1451 ______________ -1 13 289
1950196N21144 1950 39 WP MM FLOSSIE:GRACE 1950-07-15 12:00:00 TS 21.9143 142.686 main 1451 1404 O________OOO__ jtwc_wp WP041950 22.0000 142.300 50 0 22.0000 142.300 TC 50 22.0000 142.300 2 50 22.0000 142.300 50 998 120 15 288
1950196N21144 1950 39 WP MM FLOSSIE:GRACE 1950-07-15 15:00:00 TS 22.1016 142.048 main 1400 1355 P________PPP__ WP041950 22.1381 141.688 52 0 22.1381 141.688 TC 52 22.1960 141.766 2 51 22.1381 141.688 52 997 120 13 287
1950196N21144 1950 39 WP MM FLOSSIE:GRACE 1950-07-15 18:00:00 TS 22.2906 141.396 main 1355 1311 O________OPO__ jtwc_wp WP041950 22.3000 141.100 55 0 22.3000 141.100 TC 55 22.3831 141.215 2 52 22.3000 141.100 55 997 120 12 288
1950196N21144 1950 39 WP MM FLOSSIE:GRACE 1950-07-15 21:00:00 TS 22.4819 140.790 main 1311 1269 P________PPP__ WP041950 22.4997 140.550 55 0 22.4997 140.550 TC 55 22.5536 140.631 2 53 22.4997 140.550 55 996 120 12 288
1950196N21144 1950 39 WP MM FLOSSIE:GRACE 1950-07-16 00:00:00 TS 22.6600 140.200 main 1269 1240 O________OOO__ jtwc_wp WP041950 22.7000 140.000 55 0 22.7000 140.000 TC 55 22.7000 140.000 2 55 22.7000 140.000 55 996 120 12 285
1950196N21144 1950 39 WP MM FLOSSIE:GRACE 1950-07-16 03:00:00 TS 22.7995 139.539 main 1237 1203 P________PPP__ WP041950 22.8569 139.445 50 0 22.8569 139.445 TC 50 22.8207 139.312 2 52 22.8569 139.445 50 996 150 13 283
1950196N21144 1950 39 WP MM FLOSSIE:GRACE 1950-07-16 06:00:00 TS 22.9480 138.817 main 1197 1138 O________OPO__ jtwc_wp WP041950 23.0000 138.800 45 0 23.0000 138.800 TC 45 22.9401 138.585 2 50 23.0000 138.800 45 997 180 14 283
1950196N21144 1950 39 WP MM FLOSSIE:GRACE 1950-07-16 09:00:00 TS 23.1295 138.030 main 1132 1065 P________PPP__ WP041950 23.1354 137.965 45 0 23.1354 137.965 TC 45 23.0893 137.840 2 47 23.1354 137.965 45 998 150 15 287
1950196N21144 1950 39 WP MM FLOSSIE:GRACE 1950-07-16 12:00:00 TS 23.3800 137.260 main 1065 1000 O________OOO__ jtwc_wp WP041950 23.3000 137.100 45 0 23.3000 137.100 TC 45 23.3000 137.100 2 45 23.3000 137.100 45 999 120 14 293
1950196N21144 1950 39 WP MM FLOSSIE:GRACE 1950-07-16 15:00:00 TS 23.6907 136.601 main 1000 934 P________PPP__ WP041950 23.4969 136.377 45 0 23.4969 136.377 TC 45 23.5090 136.354 2 45 23.4969 136.377 45 998 90 14 298
1950196N21144 1950 39 WP MM FLOSSIE:GRACE 1950-07-16 18:00:00 TS 24.0359 135.905 main 934 859 O________OPO__ jtwc_wp WP041950 23.8000 135.700 45 0 23.8000 135.700 TC 45 23.7956 135.621 2 45 23.8000 135.700 45 998 60 15 298
1950196N21144 1950 39 WP MM FLOSSIE:GRACE 1950-07-16 21:00:00 TS 24.3976 135.118 main 854 771 P________PPP__ WP041950 24.1802 134.962 45 0 24.1802 134.962 TC 45 24.2093 134.928 2 45 24.1802 134.962 45 998 60 16 302
1950196N21144 1950 39 WP MM FLOSSIE:GRACE 1950-07-17 00:00:00 TS 24.9176 134.376 main 771 664 O________OOO__ jtwc_wp WP041950 24.8000 134.300 45 0 24.8000 134.300 TC 45 24.8000 134.300 2 45 24.8000 134.300 45 998 60 18 319
1950196N21144 1950 39 WP MM FLOSSIE:GRACE 1950-07-17 03:00:00 TS 25.7613 133.810 main 654 537 P________PPP__ WP041950 25.7819 133.819 50 0 25.7819 133.819 TC 50 25.6993 133.782 2 48 25.7819 133.819 50 997 60 22 335
1950196N21144 1950 39 WP MM FLOSSIE:GRACE 1950-07-17 06:00:00 TS 26.8649 133.380 main 527 420 O________OPO__ jtwc_wp WP041950 26.9000 133.400 55 0 26.9000 133.400 TC 55 26.7597 133.322 2 52 26.9000 133.400 55 996 60 23 340
1950196N21144 1950 39 WP MM FLOSSIE:GRACE 1950-07-17 09:00:00 TS 27.8920 132.932 main 406 295 P________PPP__ WP041950 27.9092 132.951 57 0 27.9092 132.951 TC 57 27.8403 132.875 2 56 27.9092 132.951 57 994 60 21 336
1950196N21144 1950 39 WP MM FLOSSIE:GRACE 1950-07-17 12:00:00 TS 28.8000 132.400 main 295 192 O________OOO__ jtwc_wp WP041950 28.8000 132.400 60 0 28.8000 132.400 TC 60 28.8000 132.400 2 60 28.8000 132.400 60 993 60 20 326
1950196N21144 1950 39 WP MM FLOSSIE:GRACE 1950-07-17 15:00:00 TS 29.5387 131.655 main 192 102 P________PPP__ WP041950 29.5411 131.586 52 0 29.5411 131.586 TC 52 29.5316 131.863 2 56 29.5411 131.586 52 994 60 18 315
1950196N21144 1950 39 WP MM FLOSSIE:GRACE 1950-07-17 18:00:00 TS 30.0926 130.901 main 102 53 O________OPO__ jtwc_wp WP041950 30.1000 130.800 45 0 30.1000 130.800 TC 45 30.0657 131.273 2 52 30.1000 130.800 45 996 60 15 315
1950196N21144 1950 39 WP MM FLOSSIE:GRACE 1950-07-17 21:00:00 TS 30.6145 130.396 main 53 44 P________PPP__ WP041950 30.6814 130.356 45 0 30.6814 130.356 TC 45 30.4669 130.647 2 48 30.4942 130.304 45 997 60 11 312
1950196N21144 1950 39 WP MM FLOSSIE:GRACE 1950-07-18 00:00:00 TS 30.8000 130.000 main 48 48 O________OOO__ jtwc_wp WP041950 30.8000 130.000 45 0 30.8000 130.000 TC 45 30.8000 130.000 2 45 30.8000 130.000 45 999 60 9 232
1950196N21144 1950 39 WP MM FLOSSIE:GRACE 1950-07-18 03:00:00 TS 30.0422 129.535 main 149 149 P________P____ WP041950 30.0422 129.535 45 0 30.0422 129.535 TC 45 2 20 206
1950196N21144 1950 39 WP MM FLOSSIE:GRACE 1950-07-18 06:00:00 TS 29.0000 129.000 main 271 271 O________O____ jtwc_wp WP041950 29.0000 129.000 45 0 29.0000 129.000 TC 45 2 22 210
1950196N21144 1950 39 WP MM FLOSSIE:GRACE 1950-07-18 09:00:00 TS 28.1123 128.266 main 391 391 P________P____ WP041950 28.2360 128.214 42 0 28.2360 128.214 TC 42 2 17 206
1950196N21144 1950 39 WP MM FLOSSIE:GRACE 1950-07-18 12:00:00 TS 27.5000 128.171 main 456 423 O_O______O____ jtwc_wp WP041950 27.8000 127.700 40 0 27.5000 128.800 3 58 982 27.8000 127.700 TC 40 4 151
1950196N21144 1950 39 WP MM FLOSSIE:GRACE 1950-07-18 15:00:00 TS 27.7400 128.496 main 423 371 P_P______P____ WP041950 27.8875 127.943 37 0 28.0075 128.897 3 58 981 27.8875 127.943 TC 37 9 41
1950196N21144 1950 39 WP MM FLOSSIE:GRACE 1950-07-18 18:00:00 TS 28.1631 128.823 main 361 322 O_O______O____ jtwc_wp WP041950 28.2000 128.500 35 0 28.5000 129.000 3 58 980 28.2000 128.500 TC 35 9 29
1950196N21144 1950 39 WP MM FLOSSIE:GRACE 1950-07-18 21:00:00 TS 28.5538 129.015 main 312 277 P_P______P____ WP041950 28.3052 128.968 35 0 28.9650 129.107 3 58 980 28.3052 128.968 TC 35 9 18
1950196N21144 1950 39 WP MM FLOSSIE:GRACE 1950-07-19 00:00:00 TS 28.9714 129.114 main 267 226 O_O______O____ jtwc_wp WP041950 28.5000 129.300 35 0 29.4000 129.200 3 58 980 28.5000 129.300 TC 35 9 5
1950196N21144 1950 39 WP MM FLOSSIE:GRACE 1950-07-19 03:00:00 TS 29.4521 129.088 main 217 184 P_P______P____ WP041950 28.9248 129.340 35 0 29.8225 129.250 3 58 980 28.9248 129.340 TC 35 10 354
1950196N21144 1950 39 WP MM FLOSSIE:GRACE 1950-07-19 06:00:00 TS 29.9232 128.999 main 184 159 O_O______O____ jtwc_wp WP041950 29.5000 129.200 35 0 30.2000 129.300 3 58 980 29.5000 129.200 TC 35 9 352
1950196N21144 1950 39 WP MM FLOSSIE:GRACE 1950-07-19 09:00:00 TS 30.3451 128.935 main 159 135 P_P______P____ WP041950 30.1949 129.053 35 0 30.5075 129.407 3 58 980 30.1949 129.053 TC 35 8 350
1950196N21144 1950 39 WP MM FLOSSIE:GRACE 1950-07-19 12:00:00 TS 30.6769 128.846 main 144 137 O_O______O____ jtwc_wp WP041950 30.8000 128.800 35 0 30.8000 129.500 3 58 980 30.8000 128.800 TC 35 6 344
1950196N21144 1950 39 WP MM FLOSSIE:GRACE 1950-07-19 15:00:00 TS 30.8959 128.759 main 137 137 P_P______P____ WP041950 31.0905 128.347 32 -1 31.1725 129.523 3 58 980 31.0979 128.432 TC 32 4 341
1950196N21144 1950 39 WP MM FLOSSIE:GRACE 1950-07-19 18:00:00 TS 31.0564 128.691 main 142 142 O_O______O____ jtwc_wp WP041950 31.2000 128.000 30 -1 31.5000 129.500 3 58 980 31.2000 128.000 TC 30 3 343
1950196N21144 1950 39 WP MM FLOSSIE:GRACE 1950-07-19 21:00:00 TS 31.2260 128.642 main 151 151 P_P___________ WP041950 31.2575 128.097 45 0 31.6725 129.465 3 58 980 TC 4 337
1950196N21144 1950 39 WP MM FLOSSIE:GRACE 1950-07-20 00:00:00 TS 31.4000 128.520 main 161 158 O_O___________ jtwc_wp WP051950 31.3000 128.300 60 0 31.8000 129.400 3 58 980 4 334
1950196N21144 1950 39 WP MM FLOSSIE:GRACE 1950-07-20 03:00:00 TS 31.5617 128.454 main 158 158 P_P___________ WP051950 31.4275 128.288 55 0 32.0000 129.308 3 58 980 3 342
1950196N21144 1950 39 WP MM FLOSSIE:GRACE 1950-07-20 06:00:00 TS 31.7240 128.394 main 158 151 O_O___________ jtwc_wp WP051950 31.6000 128.200 50 0 32.2000 129.200 3 58 980 4 342
1950196N21144 1950 39 WP MM FLOSSIE:GRACE 1950-07-20 09:00:00 TS 31.9077 128.313 main 152 147 P_P___________ WP051950 31.7925 128.115 50 0 32.3649 129.122 3 63 980 4 337
1950196N21144 1950 39 WP MM FLOSSIE:GRACE 1950-07-20 12:00:00 TS 32.1000 128.200 main 151 147 O_O___________ jtwc_wp WP051950 32.0000 128.000 50 0 32.5000 129.000 4 68 980 4 327
1950196N21144 1950 39 WP MM FLOSSIE:GRACE 1950-07-20 15:00:00 TS 32.2693 128.041 main 158 135 P_P___________ WP051950 32.1775 127.865 50 0 32.6001 128.772 4 68 979 5 322
1950196N21144 1950 39 WP MM FLOSSIE:GRACE 1950-07-20 18:00:00 TS 32.4721 127.850 main 135 107 O_O___________ jtwc_wp WP051950 32.4000 127.700 50 0 32.7000 128.500 4 68 978 6 324
1950196N21144 1950 39 WP MM FLOSSIE:GRACE 1950-07-20 21:00:00 TS 32.7388 127.640 main 100 68 P_P___________ WP051950 32.7125 127.500 47 0 32.8050 128.235 4 68 976 7 330
1950196N21144 1950 39 WP MM FLOSSIE:GRACE 1950-07-21 00:00:00 TS 33.0800 127.440 main 60 37 O_O___________ jtwc_wp WP051950 33.1000 127.300 45 0 33.0000 128.000 4 68 975 8 338
1950196N21144 1950 39 WP MM FLOSSIE:GRACE 1950-07-21 03:00:00 TS 33.4857 127.274 main 37 29 P_P___________ WP051950 33.5275 127.120 42 0 33.3324 127.827 4 68 976 9 345
1950196N21144 1950 39 WP MM FLOSSIE:GRACE 1950-07-21 06:00:00 TS 33.9547 127.163 main 45 11 O_O___________ jtwc_wp WP051950 34.0000 127.000 40 0 33.8000 127.700 4 68 978 10 353
1950196N21144 1950 39 WP MM FLOSSIE:GRACE 1950-07-21 09:00:00 TS 34.4640 127.126 main 0 0 P_P___________ WP051950 34.4925 126.977 37 0 34.3699 127.614 4 58 980 10 0
1950196N21144 1950 39 WP MM FLOSSIE:GRACE 1950-07-21 12:00:00 TS 35.0000 127.143 main 0 0 O_O___________ jtwc_wp WP051950 35.0000 127.000 35 0 35.0000 127.500 3 48 982 11 0
1950196N21144 1950 39 WP MM FLOSSIE:GRACE 1950-07-21 15:00:00 TS 35.5504 127.128 main 0 0 P_P___________ WP051950 35.5025 127.008 32 -1 35.6222 127.310 3 48 983 11 354
1950196N21144 1950 39 WP MM FLOSSIE:GRACE 1950-07-21 18:00:00 TS 36.1143 127.000 main 0 0 O_O___________ jtwc_wp WP051950 36.0000 127.000 30 -1 36.2000 127.000 3 48 984 12 336
1950196N21144 1950 39 WP MM FLOSSIE:GRACE 1950-07-21 21:00:00 TS 36.6728 126.523 main 0 0 __P___________ WP051950 -1 36.6728 126.523 3 48 984 13 321
1950196N21144 1950 39 WP MM FLOSSIE:GRACE 1950-07-22 00:00:00 TS 37.1000 126.000 main 34 33 __O___________ -1 37.1000 126.000 3 48 985 11 319
1950196N21144 1950 39 WP MM FLOSSIE:GRACE 1950-07-22 03:00:00 TS 37.5045 125.605 main 33 0 __P___________ -1 37.5045 125.605 3 43 987 11 325
1950196N21144 1950 39 WP MM FLOSSIE:GRACE 1950-07-22 06:00:00 TS 38.0000 125.200 main 0 0 __O___________ -1 38.0000 125.200 2 38 990 14 325
1950196N21144 1950 39 WP MM FLOSSIE:GRACE 1950-07-22 09:00:00 TS 38.6759 124.564 main 41 34 __P___________ -1 38.6759 124.564 2 33 992 17 330
1950196N21144 1950 39 WP MM FLOSSIE:GRACE 1950-07-22 12:00:00 TS 39.5000 124.100 main 34 0 __O___________ -1 39.5000 124.100 1 29 995 18 349
1950196N21144 1950 39 WP MM FLOSSIE:GRACE 1950-07-22 15:00:00 TS 40.4248 124.137 main 0 0 __P___________ -1 40.4248 124.137 1 23 997 19 9
1950196N21144 1950 39 WP MM FLOSSIE:GRACE 1950-07-22 18:00:00 TS 41.4000 124.500 main 0 __O___________ -1 41.4000 124.500 0 17 1000 20 15

デジタル台風データ・検索

IBTrACS Databaseについて

本データベースは、米国NOAAが公開する1842年以降の世界の熱帯低気圧のベストトラックデータアーカイブInternational Best Track Archive for Climate Stewardship (IBTrACS)を、ウェブで閲覧しやすい形式に変換したものです。

最終更新日:2021-10-27